createdAt,value
2023-01-10T00:02:20.574Z,5.81
2023-01-10T00:04:48.159Z,5.66
2023-01-10T00:07:15.716Z,5.74
2023-01-10T00:09:43.336Z,5.74
2023-01-10T00:12:28.545Z,5.73
2023-01-10T00:14:57.543Z,5.65
2023-01-10T00:17:25.111Z,5.70
2023-01-10T00:19:52.704Z,5.82
2023-01-10T00:22:25.011Z,6.06
2023-01-10T00:24:52.715Z,6.13
2023-01-10T00:27:22.615Z,6.20
2023-01-10T00:29:52.194Z,6.34
2023-01-10T00:32:21.817Z,6.46
2023-01-10T00:34:49.392Z,6.47
2023-01-10T00:37:17.032Z,6.51
2023-01-10T00:39:44.558Z,6.60
2023-01-10T00:42:32.372Z,6.49
2023-01-10T00:45:00.002Z,6.34
2023-01-10T00:47:28.885Z,6.34
2023-01-10T00:49:56.392Z,6.43
2023-01-10T00:52:23.896Z,6.43
2023-01-10T00:54:51.460Z,6.40
2023-01-10T00:57:19.187Z,6.26
2023-01-10T00:59:46.805Z,6.21
2023-01-10T01:02:14.335Z,6.16
2023-01-10T01:04:43.302Z,6.27
2023-01-10T01:07:10.801Z,6.44
2023-01-10T01:09:59.250Z,6.47
2023-01-10T01:12:26.770Z,6.54
2023-01-10T01:14:56.374Z,6.62
2023-01-10T01:17:23.879Z,6.65
2023-01-10T01:19:52.775Z,6.74
2023-01-10T01:22:20.652Z,6.74
2023-01-10T01:24:48.277Z,6.87
2023-01-10T01:27:15.818Z,6.87
2023-01-10T01:29:43.811Z,6.79
2023-01-10T01:32:11.828Z,6.78
2023-01-10T01:34:39.411Z,6.71
2023-01-10T01:37:08.332Z,6.84
2023-01-10T01:39:35.859Z,6.86
2023-01-10T01:42:03.562Z,6.82
2023-01-10T01:44:32.733Z,6.83
2023-01-10T01:47:05.533Z,6.92
2023-01-10T01:49:35.531Z,6.88
2023-01-10T01:52:09.531Z,6.85
2023-01-10T01:54:38.858Z,6.83
2023-01-10T01:57:10.890Z,6.83
2023-01-10T01:59:42.873Z,6.77
2023-01-10T02:02:17.046Z,6.84
2023-01-10T02:04:52.277Z,6.87
2023-01-10T02:07:20.436Z,6.81
2023-01-10T02:09:53.070Z,6.87
2023-01-10T02:12:21.064Z,6.90
2023-01-10T02:14:51.589Z,6.94
2023-01-10T02:17:19.198Z,6.93
2023-01-10T02:19:53.098Z,6.95
2023-01-10T02:22:54.891Z,6.92
2023-01-10T02:25:53.075Z,6.81
2023-01-10T02:28:51.675Z,6.79
2023-01-10T02:31:50.568Z,6.87
2023-01-10T02:34:25.919Z,6.97
2023-01-10T02:37:02.582Z,7.00
2023-01-10T02:39:37.427Z,6.98
2023-01-10T02:42:09.472Z,6.99
2023-01-10T02:44:43.855Z,6.92
2023-01-10T02:47:14.572Z,6.85
2023-01-10T02:49:43.573Z,6.82
2023-01-10T02:52:11.940Z,6.73
2023-01-10T02:54:39.643Z,6.84
2023-01-10T02:57:30.963Z,6.64
2023-01-10T03:00:18.716Z,6.50
2023-01-10T03:02:58.492Z,6.43
2023-01-10T03:05:36.612Z,6.31
2023-01-10T03:08:19.428Z,6.24
2023-01-10T03:10:52.823Z,6.21
2023-01-10T03:13:27.431Z,6.21
2023-01-10T03:15:58.087Z,6.09
2023-01-10T03:18:33.818Z,6.02
2023-01-10T03:21:05.112Z,6.04
2023-01-10T03:23:34.736Z,6.13
2023-01-10T03:26:04.407Z,6.23
2023-01-10T03:28:38.777Z,6.22
2023-01-10T03:31:11.629Z,6.29
2023-01-10T03:33:42.051Z,6.45
2023-01-10T03:36:20.781Z,6.44
2023-01-10T03:38:53.431Z,6.36
2023-01-10T03:41:30.770Z,6.24
2023-01-10T03:44:23.657Z,6.28
2023-01-10T03:46:59.198Z,6.22
2023-01-10T03:49:29.936Z,6.10
2023-01-10T03:51:59.494Z,6.05
2023-01-10T03:54:27.055Z,5.95
2023-01-10T03:56:54.616Z,5.94
2023-01-10T03:59:25.599Z,5.87
2023-01-10T04:01:53.636Z,5.85
2023-01-10T04:04:21.754Z,5.94
2023-01-10T04:06:50.798Z,6.08
2023-01-10T04:09:18.346Z,6.14
2023-01-10T04:11:46.099Z,6.12
2023-01-10T04:14:13.614Z,5.99
2023-01-10T04:16:41.227Z,5.91
2023-01-10T04:19:08.962Z,5.82
2023-01-10T04:21:36.524Z,5.79
2023-01-10T04:24:05.782Z,5.74
2023-01-10T04:26:33.386Z,5.69
2023-01-10T04:29:00.926Z,5.66
2023-01-10T04:31:29.124Z,5.68
2023-01-10T04:33:56.704Z,5.58
2023-01-10T04:36:24.300Z,5.61
2023-01-10T04:38:51.831Z,5.56
2023-01-10T04:41:20.695Z,5.58
2023-01-10T04:43:49.730Z,5.57
2023-01-10T04:46:17.764Z,5.45
2023-01-10T04:48:45.326Z,5.43
2023-01-10T04:51:12.983Z,5.40
2023-01-10T04:53:42.302Z,5.49
2023-01-10T04:56:12.691Z,5.43
2023-01-10T04:58:41.612Z,5.55
2023-01-10T05:01:10.633Z,5.54
2023-01-10T05:03:38.332Z,5.43
2023-01-10T05:06:08.369Z,5.43
2023-01-10T05:08:38.395Z,5.49
2023-01-10T05:11:06.253Z,5.58
2023-01-10T05:13:38.226Z,5.55
2023-01-10T05:16:08.763Z,5.58
2023-01-10T05:18:36.492Z,5.64
2023-01-10T05:21:05.946Z,5.56
2023-01-10T05:23:34.354Z,5.55
2023-01-10T05:26:07.062Z,5.50
2023-01-10T05:28:34.694Z,5.43
2023-01-10T05:31:02.346Z,5.38
2023-01-10T05:33:31.323Z,5.42
2023-01-10T05:36:01.592Z,5.35
2023-01-10T05:38:30.054Z,5.34
2023-01-10T05:40:59.055Z,5.33
2023-01-10T05:43:27.948Z,5.52
2023-01-10T05:45:55.769Z,5.74
2023-01-10T05:48:23.737Z,5.75
2023-01-10T05:50:53.922Z,5.88
2023-01-10T05:53:21.744Z,5.89
2023-01-10T05:55:54.359Z,5.92
2023-01-10T05:58:21.949Z,5.96
2023-01-10T06:00:49.743Z,5.88
2023-01-10T06:03:17.702Z,5.79
2023-01-10T06:05:47.778Z,5.73
2023-01-10T06:08:17.870Z,5.62
2023-01-10T06:10:45.521Z,5.45
2023-01-10T06:13:13.203Z,5.45
2023-01-10T06:15:41.009Z,5.33
2023-01-10T06:18:11.839Z,5.42
2023-01-10T06:20:39.849Z,5.43
2023-01-10T06:23:07.414Z,5.46
2023-01-10T06:25:40.332Z,5.51
2023-01-10T06:28:08.316Z,5.62
2023-01-10T06:30:36.165Z,5.67
2023-01-10T06:33:04.869Z,5.79
2023-01-10T06:35:33.143Z,5.80
2023-01-10T06:38:00.724Z,5.92
2023-01-10T06:40:29.624Z,5.88
2023-01-10T06:42:59.139Z,5.90
2023-01-10T06:45:26.836Z,5.97
2023-01-10T06:47:54.491Z,6.04
2023-01-10T06:50:22.059Z,6.07
2023-01-10T06:52:58.817Z,6.05
2023-01-10T06:55:26.721Z,6.09
2023-01-10T06:57:59.066Z,6.14
2023-01-10T07:00:28.324Z,6.12
2023-01-10T07:02:57.453Z,6.13
2023-01-10T07:05:25.182Z,6.16
2023-01-10T07:07:52.732Z,6.25
2023-01-10T07:10:20.400Z,6.24
2023-01-10T07:12:47.982Z,6.21
2023-01-10T07:15:17.000Z,6.45
2023-01-10T07:17:44.619Z,6.43
2023-01-10T07:20:13.320Z,6.35
2023-01-10T07:22:40.994Z,6.15
2023-01-10T07:25:09.585Z,6.14
2023-01-10T07:27:37.283Z,6.09
2023-01-10T07:30:05.815Z,5.96
2023-01-10T07:32:35.151Z,6.00
2023-01-10T07:35:03.025Z,5.87
2023-01-10T07:37:30.595Z,5.98
2023-01-10T07:39:58.137Z,5.91
2023-01-10T07:42:25.707Z,6.02
2023-01-10T07:44:53.249Z,6.07
2023-01-10T07:47:20.798Z,6.04
2023-01-10T07:49:49.762Z,5.99
2023-01-10T07:52:17.349Z,6.07
2023-01-10T07:54:45.004Z,6.02
2023-01-10T07:57:12.771Z,6.08
2023-01-10T07:59:40.528Z,6.06
2023-01-10T08:02:10.416Z,6.25
2023-01-10T08:04:38.799Z,6.32
2023-01-10T08:07:07.905Z,6.64
2023-01-10T08:09:35.464Z,6.89
2023-01-10T08:12:03.063Z,6.94
2023-01-10T08:14:30.770Z,6.77
2023-01-10T08:16:58.385Z,6.78
2023-01-10T08:19:25.956Z,6.79
2023-01-10T08:21:53.886Z,6.63
2023-01-10T08:24:22.799Z,6.75
2023-01-10T08:26:50.879Z,6.49
2023-01-10T08:29:18.541Z,6.48
2023-01-10T08:31:46.135Z,6.45
2023-01-10T08:34:14.084Z,6.57
2023-01-10T08:36:41.690Z,6.53
2023-01-10T08:39:09.512Z,6.51
2023-01-10T08:41:39.587Z,6.54
2023-01-10T08:44:07.195Z,6.76
2023-01-10T08:46:34.840Z,7.04
2023-01-10T08:49:02.378Z,7.22
2023-01-10T08:51:30.113Z,7.48
2023-01-10T08:53:57.683Z,7.39
2023-01-10T08:56:25.352Z,7.56
2023-01-10T08:58:54.291Z,7.63
2023-01-10T09:01:21.997Z,7.54
2023-01-10T09:03:49.640Z,7.44
2023-01-10T09:06:17.358Z,7.48
2023-01-10T09:08:44.996Z,7.35
2023-01-10T09:11:12.622Z,7.19
2023-01-10T09:13:42.200Z,7.27
2023-01-10T09:16:11.660Z,7.17
2023-01-10T09:18:39.497Z,7.11
2023-01-10T09:21:08.586Z,7.09
2023-01-10T09:23:37.269Z,7.15
2023-01-10T09:26:07.066Z,7.18
2023-01-10T09:28:34.697Z,7.34
2023-01-10T09:31:06.519Z,7.24
2023-01-10T09:33:46.257Z,7.30
2023-01-10T09:36:15.530Z,7.35
2023-01-10T09:38:43.619Z,7.33
2023-01-10T09:41:49.632Z,7.34
2023-01-10T09:44:22.156Z,7.41
2023-01-10T09:47:05.962Z,7.46
2023-01-10T09:49:49.434Z,7.65
2023-01-10T09:52:23.291Z,7.59
2023-01-10T09:54:54.180Z,7.51
2023-01-10T09:57:26.770Z,7.63
2023-01-10T09:59:54.739Z,7.74
2023-01-10T10:02:34.692Z,7.72
2023-01-10T10:05:11.262Z,7.87
2023-01-10T10:07:41.453Z,7.97
2023-01-10T10:10:13.871Z,8.16
2023-01-10T10:12:50.237Z,8.34
2023-01-10T10:15:27.335Z,8.46
2023-01-10T10:18:12.438Z,8.20
2023-01-10T10:20:52.464Z,8.02
2023-01-10T10:23:36.477Z,8.08
2023-01-10T10:26:15.123Z,8.11
2023-01-10T10:29:12.675Z,7.85
2023-01-10T10:32:02.127Z,8.10
2023-01-10T10:34:38.975Z,8.11
2023-01-10T10:37:14.578Z,8.21
2023-01-10T10:39:46.826Z,8.30
2023-01-10T10:42:17.633Z,8.53
2023-01-10T10:44:51.422Z,8.59
2023-01-10T10:47:21.074Z,8.66
2023-01-10T10:49:55.573Z,8.91
2023-01-10T10:52:29.151Z,8.98
2023-01-10T10:54:57.995Z,9.06
2023-01-10T10:57:29.076Z,9.11
2023-01-10T10:59:59.747Z,9.04
2023-01-10T11:02:32.326Z,8.82
2023-01-10T11:05:04.466Z,9.01
2023-01-10T11:07:39.296Z,8.87
2023-01-10T11:10:41.764Z,8.73
2023-01-10T11:13:19.164Z,8.54
2023-01-10T11:15:48.941Z,8.50
2023-01-10T11:18:20.668Z,8.82
2023-01-10T11:20:50.707Z,8.88
2023-01-10T11:23:27.198Z,8.91
2023-01-10T11:25:55.265Z,8.95
2023-01-10T11:28:30.536Z,8.91
2023-01-10T11:31:02.575Z,8.86
2023-01-10T11:33:35.496Z,8.90
2023-01-10T11:36:05.725Z,9.01
2023-01-10T11:38:34.858Z,8.96
2023-01-10T11:41:03.808Z,8.81
2023-01-10T11:43:35.031Z,8.77
2023-01-10T11:46:05.187Z,8.84
2023-01-10T11:49:04.449Z,8.77
2023-01-10T11:51:35.496Z,9.10
2023-01-10T11:54:07.547Z,8.98
2023-01-10T11:56:36.672Z,9.12
2023-01-10T11:59:12.423Z,9.17
2023-01-10T12:01:43.189Z,9.33
2023-01-10T12:04:17.035Z,9.13
2023-01-10T12:06:48.342Z,8.88
2023-01-10T12:09:40.580Z,9.12
2023-01-10T12:12:17.687Z,9.10
2023-01-10T12:14:45.638Z,9.07
2023-01-10T12:17:22.628Z,8.75
2023-01-10T12:19:53.077Z,8.88
2023-01-10T12:22:24.838Z,8.86
2023-01-10T12:24:55.589Z,8.92
2023-01-10T12:27:29.117Z,8.99
2023-01-10T12:30:03.425Z,9.09
2023-01-10T12:32:44.454Z,9.05
2023-01-10T12:35:17.709Z,8.98
2023-01-10T12:37:49.341Z,8.76
2023-01-10T12:40:26.188Z,8.57
2023-01-10T12:43:15.284Z,8.70
2023-01-10T12:45:49.880Z,8.63
2023-01-10T12:48:26.250Z,8.94
2023-01-10T12:51:01.279Z,8.99
2023-01-10T12:53:35.068Z,8.86
2023-01-10T12:56:08.181Z,8.91
2023-01-10T12:58:42.889Z,8.66
2023-01-10T13:01:13.910Z,8.75
2023-01-10T13:03:42.039Z,8.45
2023-01-10T13:06:20.300Z,8.28
2023-01-10T13:08:48.207Z,8.04
2023-01-10T13:11:23.653Z,8.08
2023-01-10T13:13:58.125Z,8.21
2023-01-10T13:16:34.701Z,8.20
2023-01-10T13:19:23.281Z,8.17
2023-01-10T13:21:52.334Z,8.11
2023-01-10T13:24:23.264Z,8.08
2023-01-10T13:26:56.376Z,8.28
2023-01-10T13:29:26.084Z,8.50
2023-01-10T13:31:57.569Z,8.67
2023-01-10T13:34:29.130Z,8.61
2023-01-10T13:36:59.279Z,8.80
2023-01-10T13:39:32.805Z,8.72
2023-01-10T13:42:46.439Z,8.74
2023-01-10T13:45:28.880Z,8.82
2023-01-10T13:48:25.879Z,8.69
2023-01-10T13:51:16.628Z,8.45
2023-01-10T13:54:01.132Z,8.37
2023-01-10T13:56:36.067Z,8.36
2023-01-10T13:59:31.738Z,8.46
2023-01-10T14:02:21.325Z,8.41
2023-01-10T14:04:55.802Z,8.23
2023-01-10T14:07:28.156Z,8.19
2023-01-10T14:10:04.811Z,8.31
2023-01-10T14:12:35.912Z,8.35
2023-01-10T14:15:21.467Z,8.30
2023-01-10T14:17:57.101Z,8.16
2023-01-10T14:20:25.067Z,7.89
2023-01-10T14:23:06.504Z,7.73
2023-01-10T14:25:36.738Z,7.77
2023-01-10T14:28:07.003Z,7.83
2023-01-10T14:30:40.381Z,7.76
2023-01-10T14:33:16.508Z,7.88
2023-01-10T14:35:46.686Z,7.89
2023-01-10T14:38:20.901Z,7.86
2023-01-10T14:40:51.110Z,7.94
2023-01-10T14:43:24.090Z,7.68
2023-01-10T14:45:56.947Z,7.76
2023-01-10T14:48:29.875Z,7.74
2023-01-10T14:51:21.290Z,7.87
2023-01-10T14:53:56.358Z,7.70
2023-01-10T14:56:26.137Z,7.87
2023-01-10T14:58:53.835Z,7.67
2023-01-10T15:01:27.687Z,7.61
2023-01-10T15:03:56.914Z,7.63
2023-01-10T15:06:26.109Z,7.56
2023-01-10T15:08:59.876Z,7.62
2023-01-10T15:11:31.272Z,7.57
2023-01-10T15:14:04.483Z,7.66
2023-01-10T15:16:36.681Z,7.51
2023-01-10T15:19:04.539Z,7.58
2023-01-10T15:21:33.105Z,7.66
2023-01-10T15:24:00.738Z,7.53
2023-01-10T15:26:33.107Z,7.55
2023-01-10T15:29:10.720Z,7.43
2023-01-10T15:31:41.410Z,7.41
2023-01-10T15:34:11.381Z,7.34
2023-01-10T15:36:45.354Z,7.39
2023-01-10T15:39:21.518Z,7.30
2023-01-10T15:41:50.136Z,7.39
2023-01-10T15:44:33.805Z,7.38
2023-01-10T15:47:02.810Z,7.39
2023-01-10T15:49:30.689Z,7.27
2023-01-10T15:51:58.717Z,7.26
2023-01-10T15:54:31.668Z,7.27
2023-01-10T15:57:06.599Z,7.29
2023-01-10T15:59:39.104Z,7.29
2023-01-10T16:02:24.603Z,7.35
2023-01-10T16:04:58.162Z,7.39
2023-01-10T16:07:28.867Z,7.50
2023-01-10T16:09:59.088Z,7.62
2023-01-10T16:12:46.668Z,7.57
2023-01-10T16:15:17.656Z,7.59
2023-01-10T16:17:47.416Z,7.56
2023-01-10T16:20:16.033Z,7.50
2023-01-10T16:22:44.815Z,7.57
2023-01-10T16:25:17.846Z,7.38
2023-01-10T16:27:45.938Z,7.38
2023-01-10T16:30:23.264Z,7.41
2023-01-10T16:32:52.713Z,7.45
2023-01-10T16:35:20.713Z,7.34
2023-01-10T16:37:51.419Z,7.45
2023-01-10T16:40:23.419Z,7.40
2023-01-10T16:43:08.613Z,7.40
2023-01-10T16:45:36.191Z,7.17
2023-01-10T16:48:05.533Z,7.23
2023-01-10T16:50:36.139Z,7.30
2023-01-10T16:53:06.391Z,7.28
2023-01-10T16:55:42.846Z,7.28
2023-01-10T16:58:11.778Z,7.24
2023-01-10T17:00:41.071Z,7.15
2023-01-10T17:03:14.053Z,7.16
2023-01-10T17:05:41.995Z,7.09
2023-01-10T17:08:15.240Z,7.24
2023-01-10T17:10:43.111Z,7.20
2023-01-10T17:13:12.471Z,7.21
2023-01-10T17:15:41.257Z,7.24
2023-01-10T17:18:16.393Z,7.11
2023-01-10T17:20:45.177Z,7.02
2023-01-10T17:23:15.183Z,7.13
2023-01-10T17:25:45.280Z,7.15
2023-01-10T17:28:13.678Z,7.16
2023-01-10T17:30:42.540Z,7.26
2023-01-10T17:33:12.142Z,7.24
2023-01-10T17:35:41.159Z,7.30
2023-01-10T17:38:11.559Z,7.30
2023-01-10T17:40:41.206Z,7.31
2023-01-10T17:43:08.772Z,7.22
2023-01-10T17:45:39.954Z,7.22
2023-01-10T17:48:08.191Z,7.17
2023-01-10T17:50:39.901Z,7.17
2023-01-10T17:53:08.168Z,7.14
2023-01-10T17:55:35.982Z,7.10
2023-01-10T17:58:03.779Z,7.06
2023-01-10T18:00:32.171Z,7.15
2023-01-10T18:02:59.910Z,7.20
2023-01-10T18:05:27.743Z,7.13
2023-01-10T18:07:56.977Z,7.15
2023-01-10T18:10:24.611Z,7.14
2023-01-10T18:12:52.223Z,7.21
2023-01-10T18:15:19.754Z,7.27
2023-01-10T18:17:47.371Z,7.33
2023-01-10T18:20:14.936Z,7.21
2023-01-10T18:23:00.062Z,7.28
2023-01-10T18:25:29.405Z,7.23
2023-01-10T18:27:57.296Z,7.13
2023-01-10T18:30:25.636Z,7.27
2023-01-10T18:32:54.535Z,7.24
2023-01-10T18:35:22.438Z,7.25
2023-01-10T18:37:50.180Z,7.30
2023-01-10T18:40:18.282Z,7.37
2023-01-10T18:42:51.286Z,7.30
2023-01-10T18:45:18.991Z,7.25
2023-01-10T18:47:51.799Z,7.11
2023-01-10T18:50:19.586Z,7.24
2023-01-10T18:52:47.251Z,7.31
2023-01-10T18:55:15.048Z,7.32
2023-01-10T18:57:42.688Z,7.39
2023-01-10T19:00:13.317Z,7.28
2023-01-10T19:02:41.156Z,7.29
2023-01-10T19:05:09.960Z,7.19
2023-01-10T19:07:38.885Z,7.23
2023-01-10T19:10:07.633Z,7.14
2023-01-10T19:12:35.240Z,7.10
2023-01-10T19:15:02.893Z,7.02
2023-01-10T19:17:31.750Z,7.13
2023-01-10T19:19:59.402Z,7.18
2023-01-10T19:22:26.980Z,7.16
2023-01-10T19:24:54.646Z,7.02
2023-01-10T19:27:22.182Z,7.05
2023-01-10T19:29:49.913Z,7.00
2023-01-10T19:32:17.713Z,6.80
2023-01-10T19:34:46.619Z,6.84
2023-01-10T19:37:14.302Z,6.80
2023-01-10T19:39:42.223Z,6.77
2023-01-10T19:42:09.816Z,6.71
2023-01-10T19:44:37.527Z,6.72
2023-01-10T19:47:05.194Z,6.71
2023-01-10T19:49:35.945Z,6.72
2023-01-10T19:52:06.143Z,6.74
2023-01-10T19:54:33.905Z,6.76
2023-01-10T19:57:01.924Z,6.80
2023-01-10T19:59:31.588Z,6.71
2023-01-10T20:02:00.855Z,6.72
2023-01-10T20:04:28.720Z,6.62
2023-01-10T20:06:56.443Z,6.51
2023-01-10T20:09:25.554Z,6.44
2023-01-10T20:11:53.239Z,6.38
2023-01-10T20:14:22.424Z,6.42
2023-01-10T20:16:50.964Z,6.58
2023-01-10T20:19:18.698Z,6.44
2023-01-10T20:21:46.369Z,6.46
2023-01-10T20:24:16.497Z,6.43
2023-01-10T20:26:48.924Z,6.53
2023-01-10T20:29:19.891Z,6.53
2023-01-10T20:31:52.925Z,6.48
2023-01-10T20:34:21.744Z,6.44
2023-01-10T20:36:52.494Z,6.43
2023-01-10T20:39:20.131Z,6.33
2023-01-10T20:41:49.079Z,6.36
2023-01-10T20:44:16.630Z,6.34
2023-01-10T20:46:44.775Z,6.19
2023-01-10T20:49:12.606Z,6.43
2023-01-10T20:51:40.296Z,6.35
2023-01-10T20:54:11.349Z,6.26
2023-01-10T20:56:41.570Z,6.27
2023-01-10T20:59:10.554Z,6.34
2023-01-10T21:01:38.253Z,6.42
2023-01-10T21:04:07.510Z,6.38
2023-01-10T21:06:36.885Z,6.45
2023-01-10T21:09:06.183Z,6.59
2023-01-10T21:11:47.518Z,6.60
2023-01-10T21:14:23.435Z,6.46
2023-01-10T21:16:51.294Z,6.40
2023-01-10T21:19:21.134Z,6.48
2023-01-10T21:21:49.000Z,6.56
2023-01-10T21:24:16.759Z,6.51
2023-01-10T21:26:48.457Z,6.46
2023-01-10T21:29:16.462Z,6.56
2023-01-10T21:31:45.767Z,6.61
2023-01-10T21:34:13.417Z,6.56
2023-01-10T21:36:45.162Z,6.59
2023-01-10T21:39:12.892Z,6.56
2023-01-10T21:41:58.378Z,6.48
2023-01-10T21:44:26.669Z,6.42
2023-01-10T21:46:55.628Z,6.48
2023-01-10T21:49:23.322Z,6.48
2023-01-10T21:51:51.037Z,6.43
2023-01-10T21:54:18.897Z,6.50
2023-01-10T21:56:46.530Z,6.46
2023-01-10T21:59:14.277Z,6.48
2023-01-10T22:01:41.925Z,6.40
2023-01-10T22:04:10.858Z,6.42
2023-01-10T22:06:38.514Z,6.50
2023-01-10T22:09:06.106Z,6.49
2023-01-10T22:11:33.655Z,6.46
2023-01-10T22:14:01.378Z,6.36
2023-01-10T22:16:28.988Z,6.43
2023-01-10T22:18:56.557Z,6.33
2023-01-10T22:21:25.523Z,6.40
2023-01-10T22:23:53.172Z,6.55
2023-01-10T22:26:20.763Z,6.44
2023-01-10T22:28:48.421Z,6.28
2023-01-10T22:31:16.096Z,6.42
2023-01-10T22:33:46.117Z,6.50
2023-01-10T22:36:16.354Z,6.35
2023-01-10T22:38:46.190Z,6.36
2023-01-10T22:41:16.801Z,6.41
2023-01-10T22:43:45.430Z,6.51
2023-01-10T22:46:15.489Z,6.56
2023-01-10T22:48:43.816Z,6.49
2023-01-10T22:51:11.515Z,6.47
2023-01-10T22:53:40.314Z,6.47
2023-01-10T22:56:11.106Z,6.46
2023-01-10T22:58:39.116Z,6.42
2023-01-10T23:01:08.096Z,6.42
2023-01-10T23:03:35.698Z,6.42
2023-01-10T23:06:03.805Z,6.50
2023-01-10T23:08:31.621Z,6.47
2023-01-10T23:10:59.370Z,6.62
2023-01-10T23:13:28.481Z,6.46
2023-01-10T23:15:57.582Z,6.63
2023-01-10T23:18:25.279Z,6.67
2023-01-10T23:20:53.311Z,6.57
2023-01-10T23:23:21.533Z,6.53
2023-01-10T23:26:01.343Z,6.59
2023-01-10T23:28:31.330Z,6.66
2023-01-10T23:30:59.366Z,6.64
2023-01-10T23:33:27.023Z,6.56
2023-01-10T23:35:54.546Z,6.70
2023-01-10T23:38:22.243Z,6.68
2023-01-10T23:40:49.892Z,6.63
2023-01-10T23:43:17.577Z,6.72
2023-01-10T23:45:49.306Z,6.85
2023-01-10T23:48:18.255Z,6.80
2023-01-10T23:50:47.659Z,6.73
2023-01-10T23:53:17.612Z,6.77
2023-01-10T23:55:45.336Z,6.74
2023-01-10T23:58:13.714Z,6.84
